Time;durP1;ratioP1;P1;durP2;ratioP2;P2;SDS_P1;SDS_P2;PMS_P1;PMS_P2;Temp;Humidity;BMP_temperature;BMP_pressure;BME280_temperature;BME280_humidity;BME280_pressure;Samples;Min_cycle;Max_cycle;Signal;HPM_P1;HPM_P2
2023/03/16 00:00:12;;;;;;;;;;;;;;;7.37;70.16;99776.81;107883;1254;73686;-66
2023/03/16 00:02:42;;;;;;;;;;;;;;;7.42;70.19;99775.47;107999;1254;72912;-66
2023/03/16 00:05:11;;;;;;;;;;;;;;;7.47;70.27;99773.97;107928;1254;61225;-67
2023/03/16 00:07:42;;;;;;;;;;;;;;;7.51;70.30;99774.47;107961;1254;61330;-68
2023/03/16 00:10:11;;;;;;;;;;;;;;;7.55;70.40;99775.23;107876;1254;75726;-67
2023/03/16 00:12:42;;;;;;;;;;;;;;;7.68;70.20;99776.91;107909;1254;73491;-67
2023/03/16 00:15:12;;;;;;;;;;;;;;;7.75;70.05;99773.14;107972;1254;72675;-66
2023/03/16 00:17:41;;;;;;;;;;;;;;;7.67;70.24;99774.20;107796;1254;62102;-66
2023/03/16 00:20:16;;;;;;;;;;;;;;;7.66;70.32;99771.69;108024;1255;61089;-66
2023/03/16 00:22:45;;;;;;;;;;;;;;;7.68;70.43;99769.16;108413;1254;73999;-66
2023/03/16 00:25:13;;;;;;;;;;;;;;;7.70;70.46;99767.79;108001;1259;72499;-67
2023/03/16 00:27:42;;;;;;;;;;;;;;;7.73;70.50;99764.62;108106;1254;73643;-66
2023/03/16 00:30:11;;;;;;;;;;;;;;;7.77;70.49;99768.31;107997;1254;61208;-67
2023/03/16 00:32:43;;;;;;;;;;;;;;;7.88;70.19;99765.40;108061;1254;61093;-67
2023/03/16 00:35:12;;;;;;;;;;;;;;;7.80;70.40;99764.02;108070;1258;75536;-65
2023/03/16 00:37:42;;;;;;;;;;;;;;;7.77;70.53;99764.91;107951;1254;73162;-66
2023/03/16 00:40:14;;;;;;;;;;;;;;;7.81;70.69;99765.14;108001;1254;73580;-66
2023/03/16 00:42:43;;;;;;;;;;;;;;;7.94;70.51;99769.14;108053;1255;61517;-66
2023/03/16 00:45:16;;;;;;;;;;;;;;;8.03;70.44;99769.82;108168;1254;61126;-68
2023/03/16 00:47:45;;;;;;;;;;;;;;;8.09;70.32;99770.76;108099;1256;73574;-65
2023/03/16 00:50:14;;;;;;;;;;;;;;;8.14;70.27;99772.43;107996;1254;73711;-65
2023/03/16 00:52:43;;;;;;;;;;;;;;;8.18;70.17;99772.98;108088;1254;73019;-66
2023/03/16 00:55:12;;;;;;;;;;;;;;;8.19;70.13;99770.27;107987;1253;61422;-66
2023/03/16 00:57:43;;;;;;;;;;;;;;;8.21;70.08;99773.30;108102;1254;61771;-66
2023/03/16 01:00:15;;;;;;;;;;;;;;;8.24;70.07;99776.73;108083;1254;74464;-67
2023/03/16 01:02:44;;;;;;;;;;;;;;;8.28;70.04;99768.70;108100;1254;73034;-67
2023/03/16 01:05:13;;;;;;;;;;;;;;;8.31;70.03;99766.05;108048;1254;73548;-67
2023/03/16 01:07:41;;;;;;;;;;;;;;;8.33;69.97;99766.92;107998;1254;62426;-66
2023/03/16 01:10:10;;;;;;;;;;;;;;;8.36;70.03;99771.17;108072;1254;61330;-66
2023/03/16 01:12:39;;;;;;;;;;;;;;;8.40;69.99;99776.91;108101;1254;74006;-64
2023/03/16 01:15:08;;;;;;;;;;;;;;;8.44;69.87;99780.38;108015;1258;72784;-64
2023/03/16 01:17:36;;;;;;;;;;;;;;;8.48;69.84;99784.87;108039;1254;73716;-65
2023/03/16 01:20:10;;;;;;;;;;;;;;;8.51;69.86;99786.38;108044;1254;61225;-65
2023/03/16 01:22:41;;;;;;;;;;;;;;;8.56;69.80;99784.55;107941;1256;61133;-65
2023/03/16 01:25:11;;;;;;;;;;;;;;;8.58;69.69;99783.03;108115;1254;74950;-65
2023/03/16 01:27:41;;;;;;;;;;;;;;;8.62;69.66;99782.77;108055;1254;73413;-65
2023/03/16 01:30:11;;;;;;;;;;;;;;;8.63;69.47;99785.23;108015;1254;72730;-65
2023/03/16 01:32:40;;;;;;;;;;;;;;;8.62;69.42;99785.17;107945;1254;61880;-65
2023/03/16 01:35:12;;;;;;;;;;;;;;;8.66;69.27;99780.98;107903;1257;61640;-65
2023/03/16 01:37:41;;;;;;;;;;;;;;;8.66;69.23;99782.84;107930;1254;75898;-66
2023/03/16 01:40:18;;;;;;;;;;;;;;;8.72;69.22;99784.50;107949;1254;74350;-65
2023/03/16 01:42:47;;;;;;;;;;;;;;;8.76;69.20;99785.73;108052;1254;72576;-66
2023/03/16 01:45:34;;;;;;;;;;;;;;;8.77;69.18;99784.35;107949;1254;61681;-65
2023/03/16 01:48:03;;;;;;;;;;;;;;;8.76;69.26;99788.23;107960;1254;61260;-66
2023/03/16 01:50:31;;;;;;;;;;;;;;;8.79;69.19;99794.58;107946;1254;74815;-66
2023/03/16 01:53:00;;;;;;;;;;;;;;;8.87;68.95;99800.09;107894;1254;73040;-66
2023/03/16 01:55:30;;;;;;;;;;;;;;;8.89;68.79;99804.83;108126;1254;73111;-66
2023/03/16 01:57:59;;;;;;;;;;;;;;;8.88;68.97;99800.13;107953;1254;61494;-66
2023/03/16 02:00:32;;;;;;;;;;;;;;;8.91;68.86;99801.20;107972;1254;61227;-67
2023/03/16 02:03:07;;;;;;;;;;;;;;;8.95;68.68;99799.35;107890;1254;74901;-67
2023/03/16 02:05:55;;;;;;;;;;;;;;;8.97;68.56;99799.92;108161;1257;72162;-66
2023/03/16 02:08:25;;;;;;;;;;;;;;;8.99;68.44;99798.50;107885;1254;72865;-65
2023/03/16 02:10:55;;;;;;;;;;;;;;;9.00;68.39;99805.27;107882;1254;62328;-66
2023/03/16 02:13:28;;;;;;;;;;;;;;;9.01;68.30;99810.22;107920;1257;61086;-66
2023/03/16 02:15:58;;;;;;;;;;;;;;;9.04;68.22;99819.70;107995;1254;75003;-67
2023/03/16 02:18:27;;;;;;;;;;;;;;;9.03;68.16;99816.58;107999;1254;72676;-67
2023/03/16 02:21:06;;;;;;;;;;;;;;;8.99;68.03;99821.98;107865;1259;72863;-66
2023/03/16 02:23:37;;;;;;;;;;;;;;;8.94;67.93;99823.38;108092;1254;61317;-66
2023/03/16 02:26:11;;;;;;;;;;;;;;;8.89;67.97;99823.89;107852;1257;61154;-65
2023/03/16 02:28:55;;;;;;;;;;;;;;;8.87;67.96;99827.03;107957;1254;76113;-68
2023/03/16 02:31:26;;;;;;;;;;;;;;;8.82;67.95;99828.58;108089;1254;72262;-66
2023/03/16 02:33:56;;;;;;;;;;;;;;;8.84;67.99;99831.77;108064;1254;73681;-66
2023/03/16 02:36:25;;;;;;;;;;;;;;;8.83;67.88;99831.13;107923;1254;62718;-66
2023/03/16 02:38:55;;;;;;;;;;;;;;;8.80;67.80;99824.05;108000;1254;61129;-67
2023/03/16 02:45:00;;;;;;;;;;;;;;;8.58;68.05;99803.20;107814;1257;74084;-65
2023/03/16 02:47:33;;;;;;;;;;;;;;;8.53;68.05;99804.15;107911;1257;74038;-65
2023/03/16 02:50:05;;;;;;;;;;;;;;;8.46;68.16;99801.57;107938;1256;62750;-65
2023/03/16 02:52:36;;;;;;;;;;;;;;;8.40;68.30;99809.42;107897;1254;61212;-65
2023/03/16 02:55:07;;;;;;;;;;;;;;;8.38;68.44;99812.02;108112;1254;75690;-64
2023/03/16 02:57:36;;;;;;;;;;;;;;;8.40;68.47;99814.16;107898;1257;72056;-69
2023/03/16 03:00:20;;;;;;;;;;;;;;;8.36;68.44;99815.61;108009;1259;74110;-66
2023/03/16 03:02:51;;;;;;;;;;;;;;;8.32;68.41;99816.29;107927;1254;62854;-66
2023/03/16 03:05:20;;;;;;;;;;;;;;;8.30;68.35;99814.32;107885;1259;61205;-65
2023/03/16 03:07:49;;;;;;;;;;;;;;;8.25;68.34;99807.52;107961;1254;73567;-64
2023/03/16 03:10:18;;;;;;;;;;;;;;;8.19;68.33;99811.34;107941;1259;72199;-66
2023/03/16 03:12:48;;;;;;;;;;;;;;;8.20;68.53;99807.61;108127;1254;74249;-65
2023/03/16 03:15:18;;;;;;;;;;;;;;;8.25;68.51;99810.09;108014;1254;63201;-66
2023/03/16 03:17:58;;;;;;;;;;;;;;;8.28;68.39;99811.59;108003;1259;61076;-68
2023/03/16 03:20:29;;;;;;;;;;;;;;;8.27;68.21;99812.59;107845;1254;75372;-66
2023/03/16 03:22:59;;;;;;;;;;;;;;;8.23;68.11;99814.48;107960;1254;71053;-66
2023/03/16 03:25:28;;;;;;;;;;;;;;;8.17;68.14;99813.89;108235;1259;73678;-66
2023/03/16 03:28:04;;;;;;;;;;;;;;;8.17;68.12;99812.23;107782;1254;61231;-66
2023/03/16 03:30:33;;;;;;;;;;;;;;;8.18;68.08;99806.48;107996;1254;61230;-65
2023/03/16 03:33:03;;;;;;;;;;;;;;;8.20;67.97;99807.46;108050;1254;73795;-65
2023/03/16 03:35:32;;;;;;;;;;;;;;;8.16;67.88;99803.55;108124;1254;73121;-65
2023/03/16 03:38:01;;;;;;;;;;;;;;;8.08;68.02;99805.27;108016;1254;73180;-64
2023/03/16 03:40:34;;;;;;;;;;;;;;;8.00;68.24;99811.14;107960;1254;63287;-67
2023/03/16 03:43:03;;;;;;;;;;;;;;;8.03;68.41;99809.08;107844;1254;61026;-66
2023/03/16 03:45:33;;;;;;;;;;;;;;;7.99;68.34;99810.81;108012;1254;76329;-65
2023/03/16 03:48:01;;;;;;;;;;;;;;;7.94;68.36;99814.18;107945;1259;73990;-68
2023/03/16 03:50:30;;;;;;;;;;;;;;;7.87;68.26;99819.83;108062;1254;73673;-65
2023/03/16 03:53:36;;;;;;;;;;;;;;;7.72;68.42;99822.55;107906;1254;62185;-65
2023/03/16 03:56:15;;;;;;;;;;;;;;;7.68;68.53;99825.93;107990;1254;60183;-65
2023/03/16 03:58:46;;;;;;;;;;;;;;;7.66;68.71;99827.61;108054;1258;74361;-65
2023/03/16 04:01:20;;;;;;;;;;;;;;;7.67;68.74;99829.64;107946;1254;71096;-65
2023/03/16 04:03:49;;;;;;;;;;;;;;;7.67;68.80;99826.98;108079;1254;73841;-66
2023/03/16 04:06:18;;;;;;;;;;;;;;;7.69;68.83;99827.00;108019;1254;62881;-67
2023/03/16 04:08:46;;;;;;;;;;;;;;;7.75;68.87;99829.87;108103;1254;61137;-66
2023/03/16 04:11:22;;;;;;;;;;;;;;;7.81;68.83;99828.30;107935;1254;75869;-66
2023/03/16 04:13:52;;;;;;;;;;;;;;;7.84;68.78;99826.42;107852;1254;71366;-66
2023/03/16 04:16:21;;;;;;;;;;;;;;;7.87;68.72;99828.40;108106;1256;71161;-66
2023/03/16 04:18:53;;;;;;;;;;;;;;;7.88;68.61;99829.20;107987;1254;62695;-65
2023/03/16 04:21:22;;;;;;;;;;;;;;;7.86;68.66;99831.74;107946;1257;61295;-65
2023/03/16 04:23:53;;;;;;;;;;;;;;;7.85;68.52;99829.45;107969;1254;74303;-66
2023/03/16 04:26:28;;;;;;;;;;;;;;;7.83;68.50;99832.30;107869;1254;73022;-66
2023/03/16 04:28:57;;;;;;;;;;;;;;;7.80;68.42;99832.23;107932;1258;71456;-66
2023/03/16 04:31:26;;;;;;;;;;;;;;;7.77;68.49;99829.77;108023;1254;61877;-67
2023/03/16 04:33:56;;;;;;;;;;;;;;;7.70;68.46;99831.20;108006;1254;61144;-67
2023/03/16 04:36:25;;;;;;;;;;;;;;;7.66;68.51;99834.90;107944;1254;75888;-67
2023/03/16 04:38:53;;;;;;;;;;;;;;;7.62;68.55;99837.64;108058;1259;73593;-66
2023/03/16 04:41:23;;;;;;;;;;;;;;;7.62;68.70;99840.71;104074;1258;5237856;-65
2023/03/16 04:44:03;;;;;;;;;;;;;;;7.64;68.73;99845.84;108082;1254;62648;-66
2023/03/16 04:46:32;;;;;;;;;;;;;;;7.65;68.81;99854.19;107882;1254;61757;-65
2023/03/16 04:49:02;;;;;;;;;;;;;;;7.64;68.92;99858.48;108103;1259;75942;-68
2023/03/16 04:51:31;;;;;;;;;;;;;;;7.62;68.96;99858.42;108063;1254;73216;-66
2023/03/16 04:54:08;;;;;;;;;;;;;;;7.65;69.11;99860.15;107995;1254;72598;-65
2023/03/16 04:56:41;;;;;;;;;;;;;;;7.68;69.24;99859.95;107878;1255;61304;-66
2023/03/16 04:59:17;;;;;;;;;;;;;;;7.69;69.32;99864.80;108033;1258;60263;-65
2023/03/16 05:01:53;;;;;;;;;;;;;;;7.70;69.48;99864.34;107945;1254;73842;-66
2023/03/16 05:04:23;;;;;;;;;;;;;;;7.69;69.53;99870.27;107993;1259;72171;-65
2023/03/16 05:06:51;;;;;;;;;;;;;;;7.66;69.72;99869.84;108019;1254;73576;-65
2023/03/16 05:09:24;;;;;;;;;;;;;;;7.62;69.87;99873.36;107928;1254;62213;-66
2023/03/16 05:11:53;;;;;;;;;;;;;;;7.61;70.11;99881.49;107916;1255;60096;-66
2023/03/16 05:14:23;;;;;;;;;;;;;;;7.61;70.20;99888.18;108052;1255;73828;-66
2023/03/16 05:17:02;;;;;;;;;;;;;;;7.61;70.24;99893.77;107967;1260;72525;-66
2023/03/16 05:19:31;;;;;;;;;;;;;;;7.58;70.39;99900.02;108133;1254;73931;-66
2023/03/16 05:22:05;;;;;;;;;;;;;;;7.55;70.56;99901.73;108011;1255;62563;-66
2023/03/16 05:24:35;;;;;;;;;;;;;;;7.54;70.63;99905.52;107896;1254;61100;-66
2023/03/16 05:27:07;;;;;;;;;;;;;;;7.54;70.69;99908.91;108012;1254;75267;-65
2023/03/16 05:29:36;;;;;;;;;;;;;;;7.52;70.73;99914.57;108002;1259;73097;-66
2023/03/16 05:32:05;;;;;;;;;;;;;;;7.53;70.79;99912.35;107942;1259;72935;-66
2023/03/16 05:34:36;;;;;;;;;;;;;;;7.55;70.89;99914.06;107972;1254;62410;-65
2023/03/16 05:37:05;;;;;;;;;;;;;;;7.57;70.91;99915.58;108022;1254;61491;-66
2023/03/16 05:39:34;;;;;;;;;;;;;;;7.58;70.87;99917.17;108071;1254;73821;-67
2023/03/16 05:42:03;;;;;;;;;;;;;;;7.59;70.89;99918.77;107812;1254;72094;-67
2023/03/16 05:44:49;;;;;;;;;;;;;;;7.60;70.94;99916.14;108027;1256;72563;-66
2023/03/16 05:47:27;;;;;;;;;;;;;;;7.57;70.93;99917.42;108001;1260;61837;-66
2023/03/16 05:49:57;;;;;;;;;;;;;;;7.56;70.94;99917.20;108190;1256;61323;-66
2023/03/16 05:52:35;;;;;;;;;;;;;;;7.56;71.03;99916.42;108070;1254;75932;-65
2023/03/16 05:55:09;;;;;;;;;;;;;;;7.58;71.10;99916.81;108042;1254;74094;-65
2023/03/16 05:57:38;;;;;;;;;;;;;;;7.59;71.07;99920.20;108121;1259;73736;-67
2023/03/16 06:00:13;;;;;;;;;;;;;;;7.59;71.13;99923.19;108053;1254;61174;-66
2023/03/16 06:02:46;;;;;;;;;;;;;;;7.59;71.14;99930.58;108099;1254;61130;-65
2023/03/16 06:05:15;;;;;;;;;;;;;;;7.56;71.19;99933.73;107989;1254;73875;-66
2023/03/16 06:07:45;;;;;;;;;;;;;;;7.55;71.28;99934.48;107987;1254;72981;-66
2023/03/16 06:10:16;;;;;;;;;;;;;;;7.53;71.36;99942.73;107948;1259;73223;-66
2023/03/16 06:12:45;;;;;;;;;;;;;;;7.51;71.45;99945.13;108016;1259;62438;-66
2023/03/16 06:15:13;;;;;;;;;;;;;;;7.49;71.52;99948.77;107931;1254;61128;-65
2023/03/16 06:17:47;;;;;;;;;;;;;;;7.44;71.43;99951.86;108138;1254;74666;-65
2023/03/16 06:20:16;;;;;;;;;;;;;;;7.41;71.45;99951.50;107915;1254;72832;-66
2023/03/16 06:22:44;;;;;;;;;;;;;;;7.36;71.52;99956.40;108007;1254;72914;-65
2023/03/16 06:25:13;;;;;;;;;;;;;;;7.36;71.47;99959.42;108105;1254;61221;-66
2023/03/16 06:27:44;;;;;;;;;;;;;;;7.35;71.53;99961.48;108043;1254;61243;-65
2023/03/16 06:30:17;;;;;;;;;;;;;;;7.30;71.38;99971.01;107963;1254;74962;-66
2023/03/16 06:32:45;;;;;;;;;;;;;;;7.27;71.45;99971.66;108005;1254;74048;-68
2023/03/16 06:35:13;;;;;;;;;;;;;;;7.21;71.59;99973.14;107930;1254;72793;-65
2023/03/16 06:37:46;;;;;;;;;;;;;;;7.16;71.65;99976.31;107920;1256;61537;-66
2023/03/16 06:40:34;;;;;;;;;;;;;;;7.10;71.61;99978.69;108006;1254;61131;-67
2023/03/16 06:43:06;;;;;;;;;;;;;;;7.07;71.66;99984.70;108119;1254;73480;-67
2023/03/16 06:45:34;;;;;;;;;;;;;;;7.04;71.69;99979.27;107777;1260;72891;-65
2023/03/16 06:48:03;;;;;;;;;;;;;;;7.00;71.79;99984.31;108028;1257;71669;-67
2023/03/16 06:50:33;;;;;;;;;;;;;;;6.99;71.79;99988.81;107979;1259;62455;-65
2023/03/16 06:53:01;;;;;;;;;;;;;;;6.97;71.94;99987.25;108067;1254;61604;-64
2023/03/16 06:55:31;;;;;;;;;;;;;;;6.99;72.02;99987.96;107923;1255;76077;-65
2023/03/16 06:58:00;;;;;;;;;;;;;;;6.99;72.00;99987.38;108012;1254;72975;-65
2023/03/16 07:00:30;;;;;;;;;;;;;;;7.05;71.94;99986.77;107981;1254;72509;-65
2023/03/16 07:02:59;;;;;;;;;;;;;;;7.06;71.90;99991.87;107812;1256;61540;-66
2023/03/16 07:05:28;;;;;;;;;;;;;;;7.02;71.85;99988.37;108079;1254;61087;-65
2023/03/16 07:08:00;;;;;;;;;;;;;;;7.05;71.77;99989.59;108069;1254;75686;-68
2023/03/16 07:10:28;;;;;;;;;;;;;;;7.07;71.78;99991.09;108008;1254;74076;-67
2023/03/16 07:12:57;;;;;;;;;;;;;;;7.08;71.68;99994.86;108048;1254;73853;-65
2023/03/16 07:15:25;;;;;;;;;;;;;;;7.04;71.60;99999.29;107973;1254;65095;-66
2023/03/16 07:17:56;;;;;;;;;;;;;;;6.99;71.56;100006.63;108126;1254;61196;-65
2023/03/16 07:20:27;;;;;;;;;;;;;;;6.92;71.48;100004.98;107996;1254;74626;-65
2023/03/16 07:23:11;;;;;;;;;;;;;;;6.86;71.47;100010.00;107985;1257;71980;-66
2023/03/16 07:26:00;;;;;;;;;;;;;;;6.80;71.59;100014.48;108298;1260;73695;-67
2023/03/16 07:28:41;;;;;;;;;;;;;;;6.75;71.56;100025.98;107937;1254;61160;-68
2023/03/16 07:31:26;;;;;;;;;;;;;;;6.65;71.58;100027.17;107817;1254;61196;-66
2023/03/16 07:34:21;;;;;;;;;;;;;;;6.59;71.80;100028.73;108076;1254;74590;-66
2023/03/16 07:36:54;;;;;;;;;;;;;;;6.55;71.91;100034.84;108165;1254;72491;-67
2023/03/16 07:39:25;;;;;;;;;;;;;;;6.52;72.07;100036.27;108019;1254;73694;-68
2023/03/16 07:42:00;;;;;;;;;;;;;;;6.49;72.15;100036.77;108111;1258;61560;-67
2023/03/16 07:45:01;;;;;;;;;;;;;;;6.48;72.22;100045.27;107962;1254;61133;-67
2023/03/16 07:47:33;;;;;;;;;;;;;;;6.48;72.34;100050.26;108054;1254;75443;-67
2023/03/16 07:50:10;;;;;;;;;;;;;;;6.48;72.26;100051.92;108092;1254;73445;-65
2023/03/16 07:52:44;;;;;;;;;;;;;;;6.49;72.33;100053.30;108006;1254;71221;-65
2023/03/16 07:55:15;;;;;;;;;;;;;;;6.46;72.22;100054.23;108012;1254;62166;-66
2023/03/16 07:57:46;;;;;;;;;;;;;;;6.43;72.18;100055.19;107944;1254;61329;-66
2023/03/16 08:00:22;;;;;;;;;;;;;;;6.40;72.26;100054.23;108037;1254;74771;-67
2023/03/16 08:02:52;;;;;;;;;;;;;;;6.42;72.27;100060.05;108054;1254;72988;-66
2023/03/16 08:05:37;;;;;;;;;;;;;;;6.42;72.27;100057.96;107938;1254;73760;-67
2023/03/16 08:08:16;;;;;;;;;;;;;;;6.40;72.38;100054.77;107857;1254;61138;-64
2023/03/16 08:10:46;;;;;;;;;;;;;;;6.41;72.35;100052.34;107766;1254;62751;-67
2023/03/16 08:13:19;;;;;;;;;;;;;;;6.45;72.39;100051.44;108092;1254;73495;-65
2023/03/16 08:15:54;;;;;;;;;;;;;;;6.49;72.43;100052.02;108141;1254;73016;-67
2023/03/16 08:18:28;;;;;;;;;;;;;;;6.54;72.34;100050.79;108087;1260;72966;-65
2023/03/16 08:20:59;;;;;;;;;;;;;;;6.55;72.08;100052.51;108060;1254;61100;-69
2023/03/16 08:23:29;;;;;;;;;;;;;;;6.57;72.00;100053.05;107875;1254;61202;-67
2023/03/16 08:25:57;;;;;;;;;;;;;;;6.56;71.90;100052.73;107985;1254;74409;-67
2023/03/16 08:28:26;;;;;;;;;;;;;;;6.56;71.78;100056.87;108053;1254;74053;-68
2023/03/16 08:30:57;;;;;;;;;;;;;;;6.54;71.82;100059.16;108031;1253;71751;-68
2023/03/16 08:33:42;;;;;;;;;;;;;;;6.55;71.84;100064.93;107997;1254;61892;-67
2023/03/16 08:36:11;;;;;;;;;;;;;;;6.56;71.90;100060.64;107968;1254;61273;-67
2023/03/16 08:38:41;;;;;;;;;;;;;;;6.57;71.82;100064.41;107968;1259;74434;-65
2023/03/16 08:41:15;;;;;;;;;;;;;;;6.51;72.10;100062.04;108000;1254;72537;-65
2023/03/16 08:43:45;;;;;;;;;;;;;;;6.54;72.32;100057.90;108047;1258;72019;-65
2023/03/16 08:46:14;;;;;;;;;;;;;;;6.61;72.22;100065.73;108036;1254;61219;-65
2023/03/16 08:48:56;;;;;;;;;;;;;;;6.72;71.93;100065.77;107890;1254;61817;-67
2023/03/16 08:51:26;;;;;;;;;;;;;;;6.77;71.66;100073.27;92975;1254;10003045;-65
2023/03/16 08:53:54;;;;;;;;;;;;;;;6.81;71.57;100078.67;107864;1254;61224;-65
2023/03/16 08:56:23;;;;;;;;;;;;;;;6.89;71.49;100081.02;108014;1254;61189;-65
2023/03/16 08:58:51;;;;;;;;;;;;;;;6.97;71.54;100079.59;107973;1254;75701;-66
2023/03/16 09:01:24;;;;;;;;;;;;;;;7.05;71.42;100084.16;108077;1256;71933;-66
2023/03/16 09:03:53;;;;;;;;;;;;;;;7.09;71.20;100097.29;108007;1254;72017;-67
2023/03/16 09:06:22;;;;;;;;;;;;;;;7.11;70.97;100101.48;107900;1254;61176;-66
2023/03/16 09:08:50;;;;;;;;;;;;;;;7.10;70.87;100096.60;108019;1253;61320;-66
2023/03/16 09:11:18;;;;;;;;;;;;;;;7.11;70.82;100097.24;107891;1258;75617;-65
2023/03/16 09:13:47;;;;;;;;;;;;;;;7.11;70.96;100104.00;107926;1254;71268;-67
2023/03/16 09:16:18;;;;;;;;;;;;;;;7.17;70.83;100108.13;107974;1254;71757;-67
2023/03/16 09:18:48;;;;;;;;;;;;;;;7.19;70.61;100109.05;108042;1254;61144;-68
2023/03/16 09:21:17;;;;;;;;;;;;;;;7.22;70.47;100106.83;108046;1257;61251;-65
2023/03/16 09:23:47;;;;;;;;;;;;;;;7.26;70.41;100110.36;108045;1254;74407;-66
2023/03/16 09:26:15;;;;;;;;;;;;;;;7.27;70.30;100110.37;108079;1254;70669;-66
2023/03/16 09:28:45;;;;;;;;;;;;;;;7.26;70.28;100114.34;108029;1254;72863;-66
2023/03/16 09:31:17;;;;;;;;;;;;;;;7.26;70.27;100115.89;85397;1254;20002239;-67
2023/03/16 09:33:46;;;;;;;;;;;;;;;7.26;70.35;100115.04;108025;1254;61891;-66
2023/03/16 09:36:22;;;;;;;;;;;;;;;7.30;70.37;100122.16;108278;1254;61113;-66
2023/03/16 09:38:51;;;;;;;;;;;;;;;7.30;70.38;100119.40;107928;1254;74146;-65
2023/03/16 09:41:37;;;;;;;;;;;;;;;7.26;70.45;100122.70;107910;1254;73251;-65
2023/03/16 09:44:06;;;;;;;;;;;;;;;7.17;70.84;100121.07;107837;1254;72500;-66
2023/03/16 09:46:35;;;;;;;;;;;;;;;7.18;71.02;100128.05;107962;1254;62789;-65
2023/03/16 09:49:03;;;;;;;;;;;;;;;7.22;71.10;100129.17;100475;1254;10002005;-68
2023/03/16 09:51:57;;;;;;;;;;;;;;;7.25;71.13;100124.54;107899;1254;72631;-66
2023/03/16 09:54:31;;;;;;;;;;;;;;;7.22;71.05;100124.66;107845;1257;73952;-67
2023/03/16 09:57:00;;;;;;;;;;;;;;;7.21;71.23;100124.70;107887;1254;61922;-66
2023/03/16 09:59:29;;;;;;;;;;;;;;;7.22;71.27;100127.21;108025;1253;61379;-67
2023/03/16 10:02:00;;;;;;;;;;;;;;;7.24;71.28;100125.70;108020;1257;73730;-67
2023/03/16 10:04:39;;;;;;;;;;;;;;;7.28;71.28;100129.36;108074;1254;73258;-66
2023/03/16 10:07:18;;;;;;;;;;;;;;;7.33;71.33;100125.05;100520;1259;10003071;-66
2023/03/16 10:09:53;;;;;;;;;;;;;;;7.36;71.20;100127.02;107905;1259;61237;-68
2023/03/16 10:12:31;;;;;;;;;;;;;;;7.36;71.18;100125.36;107929;1257;74140;-66
2023/03/16 10:15:19;;;;;;;;;;;;;;;7.37;71.06;100127.57;108017;1254;71526;-66
2023/03/16 10:17:52;;;;;;;;;;;;;;;7.38;70.96;100123.53;108035;1258;72568;-67
2023/03/16 10:20:22;;;;;;;;;;;;;;;7.39;70.88;100126.52;107950;1256;62224;-65
2023/03/16 10:22:51;;;;;;;;;;;;;;;7.39;70.68;100126.63;107988;1254;61314;-66
2023/03/16 10:25:38;;;;;;;;;;;;;;;7.39;70.68;100127.69;107968;1254;72955;-66
2023/03/16 10:28:06;;;;;;;;;;;;;;;7.40;70.57;100128.45;107963;1254;73003;-68
2023/03/16 10:30:35;;;;;;;;;;;;;;;7.41;70.56;100134.36;107855;1254;72834;-68
2023/03/16 10:33:10;;;;;;;;;;;;;;;7.44;70.47;100132.92;107889;1258;62150;-66
2023/03/16 10:35:45;;;;;;;;;;;;;;;7.50;70.41;100134.27;107886;1254;61139;-66
2023/03/16 10:38:47;;;;;;;;;;;;;;;7.56;70.27;100133.70;107998;1254;75943;-66
2023/03/16 10:41:21;;;;;;;;;;;;;;;7.66;70.18;100135.10;107909;1256;74422;-66
2023/03/16 10:43:56;;;;;;;;;;;;;;;7.73;70.06;100128.33;107938;1254;71174;-65
2023/03/16 10:46:26;;;;;;;;;;;;;;;7.80;69.80;100127.87;107964;1254;63165;-66
2023/03/16 10:48:58;;;;;;;;;;;;;;;7.83;69.54;100130.29;108000;1254;61250;-67
2023/03/16 10:51:28;;;;;;;;;;;;;;;7.81;69.25;100134.41;107984;1254;74869;-66
2023/03/16 10:54:00;;;;;;;;;;;;;;;7.80;69.28;100135.15;107862;1257;72683;-66
2023/03/16 10:56:30;;;;;;;;;;;;;;;7.85;69.05;100131.65;107714;1254;72596;-65
2023/03/16 10:59:11;;;;;;;;;;;;;;;7.79;69.12;100130.63;107920;1254;62727;-66
2023/03/16 11:01:43;;;;;;;;;;;;;;;7.78;69.18;100133.75;107947;1254;61173;-66
2023/03/16 11:04:15;;;;;;;;;;;;;;;7.76;69.19;100131.34;107946;1254;76247;-66
2023/03/16 11:06:47;;;;;;;;;;;;;;;7.76;69.09;100132.08;107994;1254;73129;-67
2023/03/16 11:09:20;;;;;;;;;;;;;;;7.75;69.05;100137.12;107893;1255;72030;-66
2023/03/16 11:11:48;;;;;;;;;;;;;;;7.75;69.05;100138.72;107931;1254;63276;-66
2023/03/16 11:14:18;;;;;;;;;;;;;;;7.76;69.04;100141.64;107896;1254;61108;-65
2023/03/16 11:16:49;;;;;;;;;;;;;;;7.76;69.06;100140.17;109277;1254;72939;-65
2023/03/16 11:19:31;;;;;;;;;;;;;;;7.73;68.98;100141.39;108894;1253;74009;-66
2023/03/16 11:22:11;;;;;;;;;;;;;;;7.78;68.92;100139.38;107890;1254;73336;-65
2023/03/16 11:24:54;;;;;;;;;;;;;;;7.74;69.04;100144.88;108099;1254;61936;-66
2023/03/16 11:27:23;;;;;;;;;;;;;;;7.74;69.01;100138.80;107912;1257;61160;-65
2023/03/16 11:29:58;;;;;;;;;;;;;;;7.72;68.97;100136.71;107999;1254;74163;-65
2023/03/16 11:32:29;;;;;;;;;;;;;;;7.70;68.85;100142.80;107923;1254;71941;-64
2023/03/16 11:34:59;;;;;;;;;;;;;;;7.66;68.85;100151.41;107948;1254;71125;-66
2023/03/16 11:37:35;;;;;;;;;;;;;;;7.62;68.95;100152.02;107960;1254;61636;-67
2023/03/16 11:40:11;;;;;;;;;;;;;;;7.59;69.00;100155.42;107915;1254;61266;-66
2023/03/16 11:43:01;;;;;;;;;;;;;;;7.58;69.08;100152.66;107871;1254;73771;-66
2023/03/16 11:45:34;;;;;;;;;;;;;;;7.59;69.09;100160.58;108531;1254;73423;-66
2023/03/16 11:48:05;;;;;;;;;;;;;;;7.58;69.14;100165.15;107895;1257;72942;-66
2023/03/16 11:50:48;;;;;;;;;;;;;;;7.58;69.19;100170.83;107932;1254;63405;-66
2023/03/16 11:53:21;;;;;;;;;;;;;;;7.63;68.99;100180.00;108090;1254;61349;-65
2023/03/16 11:56:22;;;;;;;;;;;;;;;7.62;68.86;100181.57;108001;1254;73673;-66
2023/03/16 11:59:14;;;;;;;;;;;;;;;7.64;68.87;100186.32;107613;1254;72224;-66
2023/03/16 12:01:53;;;;;;;;;;;;;;;7.63;68.85;100195.30;107860;1256;71454;-68
2023/03/16 12:04:32;;;;;;;;;;;;;;;7.61;68.80;100200.33;107919;1258;61972;-66
2023/03/16 12:07:24;;;;;;;;;;;;;;;7.60;68.84;100204.39;107977;1256;61120;-66
2023/03/16 12:10:02;;;;;;;;;;;;;;;7.58;68.85;100206.17;108017;1254;73514;-66
2023/03/16 12:12:43;;;;;;;;;;;;;;;7.60;68.87;100207.64;108180;1253;74106;-66
2023/03/16 12:15:32;;;;;;;;;;;;;;;7.62;68.96;100208.89;108016;1254;73696;-66
2023/03/16 12:18:26;;;;;;;;;;;;;;;7.64;69.01;100207.42;108030;1254;61745;-66
2023/03/16 12:20:58;;;;;;;;;;;;;;;7.67;68.96;100210.98;107991;1254;61837;-65
2023/03/16 12:23:31;;;;;;;;;;;;;;;7.66;68.91;100210.33;108367;1254;74580;-64
2023/03/16 12:25:59;;;;;;;;;;;;;;;7.67;68.83;100206.68;108035;1254;72784;-67
2023/03/16 12:28:28;;;;;;;;;;;;;;;7.65;68.93;100208.29;107858;1260;71849;-64
2023/03/16 12:31:13;;;;;;;;;;;;;;;7.65;68.95;100205.41;108148;1254;61329;-64
2023/03/16 12:33:56;;;;;;;;;;;;;;;7.63;68.99;100207.63;108042;1254;61204;-65
2023/03/16 12:36:44;;;;;;;;;;;;;;;7.61;69.09;100203.41;107812;1254;75204;-65
2023/03/16 12:39:13;;;;;;;;;;;;;;;7.62;69.23;100213.40;108075;1254;73099;-65
2023/03/16 12:41:57;;;;;;;;;;;;;;;7.63;69.25;100217.66;108047;1255;73116;-65
2023/03/16 12:44:33;;;;;;;;;;;;;;;7.68;69.32;100218.64;108097;1254;62779;-65
2023/03/16 12:47:24;;;;;;;;;;;;;;;7.71;69.22;100220.39;108079;1254;61356;-65
2023/03/16 12:50:06;;;;;;;;;;;;;;;7.72;69.23;100223.38;108114;1254;74554;-65
2023/03/16 12:52:40;;;;;;;;;;;;;;;7.69;69.32;100226.38;108065;1254;73584;-65
2023/03/16 12:55:26;;;;;;;;;;;;;;;7.65;69.30;100228.28;108097;1258;73613;-65
2023/03/16 12:58:48;;;;;;;;;;;;;;;7.60;69.46;100224.00;107780;1260;62287;-65
2023/03/16 13:01:18;;;;;;;;;;;;;;;7.58;69.66;100225.42;107809;1259;61097;-65
2023/03/16 13:03:57;;;;;;;;;;;;;;;7.60;69.74;100229.69;107757;1261;74440;-65
2023/03/16 13:06:28;;;;;;;;;;;;;;;7.59;69.78;100232.81;107791;1260;72356;-65
2023/03/16 13:08:58;;;;;;;;;;;;;;;7.59;69.83;100237.23;107797;1261;72642;-65
2023/03/16 13:11:28;;;;;;;;;;;;;;;7.61;69.98;100238.49;107639;1258;62371;-65
2023/03/16 13:13:59;;;;;;;;;;;;;;;7.62;70.01;100242.27;107753;1258;61995;-66
2023/03/16 13:16:31;;;;;;;;;;;;;;;7.65;69.98;100251.40;107806;1258;74281;-65